Time;durP1;ratioP1;P1;durP2;ratioP2;P2;SDS_P1;SDS_P2;PMS_P1;PMS_P2;Temp;Humidity;BMP_temperature;BMP_pressure;BME280_temperature;BME280_humidity;BME280_pressure;Samples;Min_cycle;Max_cycle;Signal;HPM_P1;HPM_P2
2023/04/28 00:00:01;;;;;;;41.50;23.23;;;1.20;99.90;;;;;;12872151;23;20251;-86
2023/04/28 00:05:06;;;;;;;43.03;24.00;;;1.40;99.90;;;;;;12875425;23;20170;-86
2023/04/28 00:10:09;;;;;;;38.27;20.43;;;1.30;99.90;;;;;;12854067;23;20237;-86
2023/04/28 00:15:12;;;;;;;33.57;19.17;;;1.40;99.90;;;;;;12871295;23;20163;-86
2023/04/28 00:20:15;;;;;;;29.10;17.80;;;1.30;99.90;;;;;;12852205;23;20167;-86
2023/04/28 00:25:17;;;;;;;30.20;18.27;;;1.50;99.90;;;;;;12850942;23;20179;-86
2023/04/28 00:30:20;;;;;;;33.17;18.80;;;1.20;99.90;;;;;;12851121;23;20244;-86
2023/04/28 00:35:22;;;;;;;27.73;17.17;;;1.30;99.90;;;;;;12872211;23;20626;-86
2023/04/28 00:40:35;;;;;;;28.20;17.70;;;1.10;99.90;;;;;;12852578;23;20195;-86
2023/04/28 00:45:38;;;;;;;30.07;17.93;;;1.00;99.90;;;;;;12851798;23;20241;-86
2023/04/28 00:50:43;;;;;;;28.90;15.50;;;1.20;99.90;;;;;;12850395;23;20206;-86
2023/04/28 00:55:46;;;;;;;28.27;15.20;;;1.00;99.90;;;;;;12852163;23;20183;-86
2023/04/28 01:00:49;;;;;;;24.57;13.47;;;0.90;99.90;;;;;;12851139;23;20260;-86
2023/04/28 01:05:52;;;;;;;25.40;14.70;;;1.20;99.90;;;;;;12852095;23;20566;-86
2023/04/28 01:10:55;;;;;;;22.27;12.80;;;1.00;99.90;;;;;;12870538;23;20171;-86
2023/04/28 01:16:17;;;;;;;25.33;14.67;;;1.20;99.90;;;;;;12853343;23;20183;-85
2023/04/28 01:21:31;;;;;;;26.97;15.90;;;1.30;99.90;;;;;;12853009;23;20245;-85
2023/04/28 01:26:38;;;;;;;25.67;14.83;;;1.20;99.90;;;;;;12873018;23;20633;-85
2023/04/28 01:31:40;;;;;;;24.60;14.03;;;1.00;99.90;;;;;;12853775;23;20245;-85
2023/04/28 01:36:43;;;;;;;23.30;14.83;;;1.20;99.90;;;;;;12857144;23;20175;-85
2023/04/28 01:41:45;;;;;;;22.70;14.63;;;1.00;99.90;;;;;;12854228;23;20206;-86
2023/04/28 01:46:48;;;;;;;36.60;17.13;;;1.00;99.90;;;;;;12853996;23;20700;-86
2023/04/28 01:51:50;;;;;;;20.60;13.60;;;0.70;99.90;;;;;;12856905;23;20795;-86
2023/04/28 01:56:53;;;;;;;22.83;13.07;;;1.00;99.90;;;;;;12854480;23;20245;-85
2023/04/28 02:01:56;;;;;;;29.33;16.23;;;1.00;99.90;;;;;;12853955;23;20206;-86
2023/04/28 02:06:59;;;;;;;20.93;14.07;;;1.00;99.90;;;;;;12853762;23;20265;-86
2023/04/28 02:12:02;;;;;;;23.17;14.90;;;1.00;99.90;;;;;;12855999;23;20171;-86
2023/04/28 02:17:05;;;;;;;29.73;13.73;;;0.90;99.90;;;;;;12853570;23;20179;-86
2023/04/28 02:22:08;;;;;;;34.60;14.70;;;0.80;99.90;;;;;;12856657;23;20257;-86
2023/04/28 02:27:10;;;;;;;28.60;15.33;;;0.80;99.90;;;;;;12855625;23;20508;-86
2023/04/28 02:32:12;;;;;;;24.53;14.53;;;0.80;99.90;;;;;;12853505;23;20214;-86
2023/04/28 02:37:15;;;;;;;23.60;15.20;;;0.60;99.90;;;;;;12852711;23;20681;-86
2023/04/28 02:42:18;;;;;;;33.33;17.87;;;0.40;99.90;;;;;;12853420;23;20204;-86
2023/04/28 02:47:20;;;;;;;27.60;17.60;;;0.70;99.90;;;;;;12829383;23;20171;-86
2023/04/28 02:52:23;;;;;;;26.67;17.07;;;0.70;99.90;;;;;;12852751;23;20218;-86
2023/04/28 02:57:25;;;;;;;31.07;16.43;;;0.80;99.90;;;;;;12853079;23;20241;-87
2023/04/28 03:02:28;;;;;;;26.70;16.90;;;0.50;99.90;;;;;;12855304;23;20187;-87
2023/04/28 03:07:31;;;;;;;29.47;16.33;;;0.50;99.90;;;;;;12828916;23;20202;-87
2023/04/28 03:12:33;;;;;;;24.57;14.83;;;0.70;99.90;;;;;;12852583;23;20573;-87
2023/04/28 03:17:37;;;;;;;22.60;13.77;;;0.50;99.90;;;;;;12852359;23;20178;-86
2023/04/28 03:22:41;;;;;;;23.13;14.03;;;0.60;99.90;;;;;;12852739;23;20254;-87
2023/04/28 03:27:43;;;;;;;26.20;14.40;;;0.60;99.90;;;;;;12853558;23;20233;-87
2023/04/28 03:32:46;;;;;;;26.00;15.03;;;0.60;99.90;;;;;;12851644;23;20258;-86
2023/04/28 03:37:49;;;;;;;23.00;14.77;;;0.50;99.90;;;;;;12851751;23;20206;-86
2023/04/28 03:42:52;;;;;;;27.07;15.37;;;0.50;99.90;;;;;;12851779;23;20658;-86
2023/04/28 03:48:03;;;;;;;24.53;14.77;;;0.50;99.90;;;;;;12851790;23;20175;-87
2023/04/28 03:53:05;;;;;;;20.50;11.93;;;0.60;99.90;;;;;;12852252;23;20187;-87
2023/04/28 03:58:08;;;;;;;20.37;13.53;;;0.70;99.90;;;;;;12850983;23;20733;-87
2023/04/28 04:03:11;;;;;;;25.87;14.13;;;0.80;99.90;;;;;;12851492;23;20246;-87
2023/04/28 04:08:14;;;;;;;22.97;14.47;;;0.70;99.90;;;;;;12851627;23;20210;-87
2023/04/28 04:13:17;;;;;;;20.60;14.00;;;0.70;99.90;;;;;;12850909;23;20178;-86
2023/04/28 04:18:20;;;;;;;27.50;15.63;;;0.90;99.90;;;;;;12853678;23;20218;-87
2023/04/28 04:23:54;;;;;;;22.90;13.70;;;0.90;99.90;;;;;;12863469;23;20585;-87
2023/04/28 04:28:57;;;;;;;26.43;16.40;;;1.00;99.90;;;;;;12850373;23;20244;-87
2023/04/28 04:34:00;;;;;;;24.03;14.07;;;1.20;99.90;;;;;;12853148;23;20512;-87
2023/04/28 04:39:03;;;;;;;33.33;17.20;;;1.50;99.90;;;;;;12849752;23;20254;-87
2023/04/28 04:44:06;;;;;;;28.83;16.77;;;1.70;99.90;;;;;;12827102;23;20646;-87
2023/04/28 04:49:16;;;;;;;31.57;18.10;;;1.70;99.90;;;;;;12851599;23;20721;-88
2023/04/28 04:54:19;;;;;;;30.33;19.03;;;2.40;99.90;;;;;;12850042;23;20183;-87
2023/04/28 04:59:22;;;;;;;37.23;22.60;;;2.40;99.90;;;;;;12852683;23;20182;-88
2023/04/28 05:04:38;;;;;;;61.00;40.23;;;2.60;99.90;;;;;;12855439;23;20198;-87
2023/04/28 05:09:42;;;;;;;53.30;44.77;;;2.80;99.90;;;;;;12853402;23;20179;-87
2023/04/28 05:14:45;;;;;;;28.70;20.20;;;3.00;99.90;;;;;;12857671;23;20201;-87
2023/04/28 05:19:49;;;;;;;50.33;26.73;;;3.30;99.90;;;;;;12855230;23;20856;-87
2023/04/28 05:24:52;;;;;;;34.40;22.17;;;3.30;99.90;;;;;;12854552;23;20517;-85
2023/04/28 05:29:55;;;;;;;50.27;28.00;;;3.80;99.90;;;;;;12853631;23;20176;-86
2023/04/28 05:34:58;;;;;;;43.63;26.80;;;4.20;99.90;;;;;;12853621;23;20214;-86
2023/04/28 05:40:00;;;;;;;34.03;22.97;;;4.60;99.90;;;;;;12854204;23;20265;-86
2023/04/28 05:45:05;;;;;;;40.53;22.67;;;5.10;99.90;;;;;;12854152;23;20223;-85
2023/04/28 06:12:09;;;;;;;22.93;13.10;;;8.50;99.90;;;;;;12551679;23;20202;-85
2023/04/28 06:17:11;;;;;;;35.77;21.87;;;8.90;99.90;;;;;;12555730;23;20687;-82
2023/04/28 06:22:14;;;;;;;28.13;19.37;;;9.30;99.90;;;;;;12555342;23;20497;-84
2023/04/28 06:27:17;;;;;;;31.57;16.20;;;8.70;99.90;;;;;;12553996;23;20239;-85
2023/04/28 06:32:20;;;;;;;29.20;19.33;;;7.60;99.90;;;;;;12556085;23;20170;-86
2023/04/28 06:37:22;;;;;;;23.43;15.67;;;7.40;99.90;;;;;;12551636;23;20187;-86
2023/04/28 06:42:25;;;;;;;17.27;12.00;;;7.40;99.90;;;;;;12574843;23;20254;-87
2023/04/28 06:47:39;;;;;;;17.97;10.30;;;7.50;99.90;;;;;;12527655;23;20257;-86
2023/04/28 06:52:43;;;;;;;17.53;11.57;;;7.70;99.90;;;;;;12552476;23;20190;-86
2023/04/28 06:57:46;;;;;;;10.27;7.80;;;7.90;99.90;;;;;;12529080;23;20189;-86
2023/04/28 07:02:48;;;;;;;14.30;8.57;;;8.20;98.40;;;;;;12556529;23;20225;-85
2023/04/28 07:07:51;;;;;;;17.77;9.00;;;8.40;99.40;;;;;;12556270;23;20209;-87
2023/04/28 07:12:54;;;;;;;15.57;8.70;;;8.70;97.30;;;;;;12556646;23;20520;-85
2023/04/28 07:17:56;;;;;;;9.83;6.27;;;8.90;99.90;;;;;;12556153;23;20171;-85
2023/04/28 07:22:59;;;;;;;10.20;4.30;;;9.70;99.90;;;;;;12553358;23;20199;-84
2023/04/28 07:28:04;;;;;;;5.70;3.77;;;10.30;99.90;;;;;;12550696;23;20218;-83
2023/04/28 07:33:07;;;;;;;11.07;4.03;;;11.00;99.90;;;;;;12553309;23;20526;-83
2023/04/28 07:38:09;;;;;;;8.03;4.67;;;11.40;94.80;;;;;;12554058;23;20234;-83
2023/04/28 07:43:12;;;;;;;7.17;3.67;;;11.40;81.30;;;;;;12552897;23;20533;-83
2023/04/28 07:48:15;;;;;;;6.20;5.00;;;11.70;96.00;;;;;;12528901;23;20170;-83
2023/04/28 07:53:18;;;;;;;5.10;3.47;;;;;;;;;;12553609;23;20246;-83
2023/04/28 07:58:21;;;;;;;7.20;4.20;;;12.40;91.30;;;;;;12553796;23;20190;-83
2023/04/28 08:03:23;;;;;;;7.13;3.33;;;12.70;87.60;;;;;;12554102;23;20228;-83
2023/04/28 08:08:26;;;;;;;6.17;2.87;;;13.00;90.00;;;;;;12553463;23;20530;-83
2023/04/28 08:13:29;;;;;;;5.70;4.00;;;13.20;65.60;;;;;;12553445;23;20498;-83
2023/04/28 08:18:32;;;;;;;7.27;3.30;;;13.40;66.40;;;;;;12553458;23;20170;-83
2023/04/28 08:23:34;;;;;;;7.40;4.10;;;13.50;59.80;;;;;;12553019;23;20230;-83
2023/04/28 08:28:38;;;;;;;9.67;4.30;;;13.60;51.80;;;;;;12570324;23;20199;-83
2023/04/28 08:33:43;;;;;;;8.70;4.93;;;13.60;53.60;;;;;;12575192;23;20856;-84
2023/04/28 08:38:46;;;;;;;7.03;5.10;;;13.70;50.50;;;;;;12551554;23;20574;-83
2023/04/28 08:43:49;;;;;;;11.73;4.47;;;13.90;50.70;;;;;;12569030;23;20571;-83
2023/04/28 08:48:59;;;;;;;5.50;3.40;;;14.00;46.00;;;;;;12551279;23;20175;-83
2023/04/28 08:54:05;;;;;;;4.90;3.13;;;14.30;60.60;;;;;;12552988;23;20170;-83
2023/04/28 08:59:12;;;;;;;7.40;4.70;;;;;;;;;;12553837;23;20182;-83
2023/04/28 09:04:16;;;;;;;11.73;5.50;;;14.70;45.90;;;;;;12551039;23;20294;-83
2023/04/28 09:09:24;;;;;;;8.13;3.80;;;14.80;38.00;;;;;;12553107;23;20197;-83
2023/04/28 09:14:28;;;;;;;14.50;4.50;;;14.70;41.80;;;;;;12551219;23;20240;-83
2023/04/28 09:19:36;;;;;;;12.93;6.13;;;15.00;47.30;;;;;;12552605;23;20570;-83
2023/04/28 09:24:41;;;;;;;14.77;6.10;;;15.10;37.70;;;;;;12552746;23;20601;-83
2023/04/28 09:29:53;;;;;;;14.47;6.40;;;14.80;36.50;;;;;;12551379;23;20171;-83
2023/04/28 09:34:56;;;;;;;8.70;5.47;;;14.90;36.90;;;;;;12552341;23;20217;-83
2023/04/28 09:40:11;;;;;;;14.17;6.97;;;14.80;36.40;;;;;;12553187;23;20210;-83
2023/04/28 09:45:15;;;;;;;10.93;7.17;;;14.90;38.50;;;;;;12553408;23;20727;-83
2023/04/28 09:50:17;;;;;;;16.23;6.63;;;14.80;32.20;;;;;;12556130;23;20170;-83
2023/04/28 09:55:20;;;;;;;9.07;5.60;;;15.00;37.30;;;;;;12556825;23;20485;-83
2023/04/28 10:00:23;;;;;;;6.03;4.93;;;15.10;38.60;;;;;;12556217;23;20219;-83
2023/04/28 10:05:25;;;;;;;11.50;6.13;;;15.10;34.80;;;;;;12554741;23;20200;-83
2023/04/28 10:10:28;;;;;;;6.23;4.43;;;15.30;39.40;;;;;;12555627;23;20199;-83
2023/04/28 10:15:32;;;;;;;8.50;3.77;;;15.20;39.00;;;;;;12556306;23;20570;-83
2023/04/28 10:20:35;;;;;;;10.10;6.87;;;15.40;41.60;;;;;;12555957;23;20182;-83
2023/04/28 10:25:39;;;;;;;5.87;4.03;;;15.70;34.40;;;;;;12556250;23;20579;-83
2023/04/28 10:30:41;;;;;;;6.40;5.63;;;15.80;39.50;;;;;;12554637;23;20700;-83
2023/04/28 10:35:46;;;;;;;13.97;9.37;;;15.60;35.60;;;;;;12552724;23;20260;-83
2023/04/28 10:40:51;;;;;;;4.33;3.87;;;15.70;31.20;;;;;;12529827;23;20170;-83
2023/04/28 10:46:01;;;;;;;12.80;6.70;;;15.60;38.00;;;;;;12554627;23;20367;-83
2023/04/28 10:51:06;;;;;;;12.70;8.00;;;15.80;38.70;;;;;;12568281;23;20177;-84
2023/04/28 10:56:15;;;;;;;14.80;7.77;;;15.90;31.70;;;;;;12553394;23;20241;-84
2023/04/28 11:01:20;;;;;;;16.07;11.17;;;15.80;36.60;;;;;;12572521;23;20177;-83
2023/04/28 11:06:39;;;;;;;5.40;4.17;;;15.80;29.20;;;;;;12529290;23;20281;-83
2023/04/28 11:11:50;;;;;;;15.67;10.37;;;15.90;39.00;;;;;;12556957;23;20596;-84
2023/04/28 11:17:01;;;;;;;9.90;6.93;;;15.80;30.60;;;;;;12552727;23;20186;-84
2023/04/28 11:22:11;;;;;;;17.77;10.53;;;15.80;32.80;;;;;;12562293;23;20174;-83
2023/04/28 11:27:23;;;;;;;7.20;4.50;;;15.90;29.50;;;;;;12571867;23;20247;-83
2023/04/28 11:32:33;;;;;;;16.13;10.60;;;16.10;41.20;;;;;;12571257;23;20173;-83
2023/04/28 11:37:36;;;;;;;14.80;9.40;;;16.10;29.70;;;;;;12553315;23;20186;-84
2023/04/28 11:42:48;;;;;;;10.87;6.70;;;16.10;30.60;;;;;;12553906;23;20701;-83
2023/04/28 11:47:51;;;;;;;13.37;9.50;;;16.30;35.30;;;;;;12553242;23;20174;-84
2023/04/28 11:52:53;;;;;;;8.33;5.93;;;16.30;30.70;;;;;;12553394;23;20182;-84
2023/04/28 11:58:23;;;;;;;11.43;9.03;;;16.20;34.30;;;;;;12554136;23;20201;-84
2023/04/28 12:03:26;;;;;;;7.57;6.27;;;16.20;28.60;;;;;;12553540;23;20585;-84
2023/04/28 12:08:29;;;;;;;8.03;5.00;;;16.30;35.10;;;;;;12552896;23;20256;-84
2023/04/28 12:13:31;;;;;;;13.30;9.80;;;16.30;34.40;;;;;;12552140;23;20222;-84
2023/04/28 12:18:35;;;;;;;12.63;8.87;;;16.30;28.90;;;;;;12553507;23;20202;-83
2023/04/28 12:23:38;;;;;;;13.73;9.40;;;16.40;28.40;;;;;;12553601;23;20247;-84
2023/04/28 12:28:41;;;;;;;12.03;8.73;;;16.50;28.10;;;;;;12553496;23;20169;-84
2023/04/28 12:33:43;;;;;;;14.87;10.30;;;16.50;27.10;;;;;;12553602;23;20184;-84
2023/04/28 12:38:48;;;;;;;14.17;9.80;;;16.50;27.90;;;;;;12575114;23;20647;-84
2023/04/28 12:43:50;;;;;;;20.03;10.37;;;16.40;27.10;;;;;;12528780;23;20258;-84
2023/04/28 12:48:53;;;;;;;8.00;6.37;;;16.30;29.70;;;;;;12553254;23;20229;-84
2023/04/28 12:53:55;;;;;;;10.43;7.93;;;16.40;31.90;;;;;;12552800;23;20201;-84
2023/04/28 12:59:01;;;;;;;5.30;4.50;;;16.60;31.00;;;;;;12553251;23;20238;-84
2023/04/28 13:04:04;;;;;;;13.90;10.50;;;16.90;36.20;;;;;;12528291;23;20593;-83
2023/04/28 13:09:07;;;;;;;8.50;6.50;;;16.90;28.00;;;;;;12552643;23;20203;-83
2023/04/28 13:14:09;;;;;;;17.70;10.97;;;16.80;29.00;;;;;;12553245;23;20185;-84
2023/04/28 13:19:13;;;;;;;15.73;10.20;;;16.70;27.30;;;;;;12571130;23;20383;-83
2023/04/28 13:24:16;;;;;;;12.03;9.63;;;16.70;27.20;;;;;;12530347;23;20209;-83
2023/04/28 13:29:19;;;;;;;10.67;7.50;;;;;;;;;;12556774;23;20237;-83
2023/04/28 13:34:21;;;;;;;9.30;6.23;;;16.90;29.60;;;;;;12573961;23;20170;-83
2023/04/28 13:39:24;;;;;;;18.63;10.87;;;17.10;34.20;;;;;;12530414;23;20653;-83
2023/04/28 13:44:26;;;;;;;9.27;7.37;;;17.10;29.40;;;;;;12556583;23;20191;-84
2023/04/28 13:49:29;;;;;;;16.10;8.13;;;17.10;28.70;;;;;;12556920;23;20183;-83
2023/04/28 13:54:32;;;;;;;17.07;10.03;;;17.30;30.00;;;;;;12554834;23;20199;-84
2023/04/28 13:59:34;;;;;;;2.73;2.00;;;17.50;30.00;;;;;;12556992;23;20184;-83
2023/04/28 14:04:37;;;;;;;11.63;8.83;;;17.60;35.60;;;;;;12530817;23;20656;-83
2023/04/28 14:09:40;;;;;;;12.57;6.93;;;17.70;26.40;;;;;;12554747;23;20203;-83
2023/04/28 14:14:45;;;;;;;4.63;4.13;;;17.70;35.10;;;;;;12554991;23;20565;-83
2023/04/28 14:19:48;;;;;;;16.47;10.07;;;17.70;35.30;;;;;;12555732;23;20211;-83
2023/04/28 14:24:50;;;;;;;14.13;9.27;;;17.80;27.80;;;;;;12573333;23;20197;-83
2023/04/28 14:29:53;;;;;;;11.33;7.13;;;17.90;29.40;;;;;;12555207;23;20169;-84
2023/04/28 14:34:56;;;;;;;12.80;5.83;;;17.80;28.30;;;;;;12554182;23;20229;-83
2023/04/28 14:39:59;;;;;;;5.53;4.70;;;17.60;28.30;;;;;;12555569;23;20184;-83
2023/04/28 14:45:03;;;;;;;14.23;8.00;;;17.50;28.40;;;;;;12554087;23;20260;-84
2023/04/28 14:50:07;;;;;;;7.73;6.17;;;17.50;30.20;;;;;;12553369;23;20238;-83
2023/04/28 14:55:09;;;;;;;13.90;9.20;;;17.50;31.70;;;;;;12554171;23;20218;-84
2023/04/28 15:00:13;;;;;;;8.30;4.43;;;17.50;27.60;;;;;;12554882;23;20641;-84
2023/04/28 15:05:15;;;;;;;8.43;5.50;;;17.50;33.20;;;;;;12554322;23;20194;-84
2023/04/28 15:10:18;;;;;;;4.93;3.27;;;17.50;32.20;;;;;;12552261;23;20585;-84
2023/04/28 15:15:20;;;;;;;12.17;8.83;;;17.50;35.90;;;;;;12553110;23;20254;-83
2023/04/28 15:20:23;;;;;;;3.03;2.47;;;17.40;27.50;;;;;;12554028;23;20190;-84
2023/04/28 15:25:26;;;;;;;12.63;7.60;;;17.40;33.50;;;;;;12576472;23;20231;-83
2023/04/28 15:30:28;;;;;;;8.03;5.13;;;17.30;28.80;;;;;;12554605;23;20169;-84
2023/04/28 15:35:31;;;;;;;19.03;5.40;;;17.20;29.90;;;;;;12554795;23;20217;-84
2023/04/28 15:40:34;;;;;;;6.53;5.50;;;17.40;32.40;;;;;;12554660;23;20226;-84
2023/04/28 15:45:37;;;;;;;12.80;5.83;;;17.50;35.80;;;;;;12554316;23;20268;-83
2023/04/28 15:50:40;;;;;;;10.03;5.43;;;17.40;31.70;;;;;;12551856;23;20236;-84
2023/04/28 15:55:43;;;;;;;7.37;4.57;;;17.40;31.10;;;;;;12554530;23;20183;-83
2023/04/28 16:00:45;;;;;;;5.57;3.77;;;17.40;36.40;;;;;;12553600;23;20525;-84
2023/04/28 16:05:48;;;;;;;3.57;3.23;;;17.50;37.50;;;;;;12553951;23;20591;-83
2023/04/28 16:10:51;;;;;;;6.53;5.30;;;17.40;38.60;;;;;;12553528;23;20532;-83
2023/04/28 16:15:54;;;;;;;8.20;3.90;;;17.50;34.70;;;;;;12553978;23;20240;-83
2023/04/28 16:20:57;;;;;;;7.23;5.40;;;17.50;36.40;;;;;;12552149;23;20233;-83
2023/04/28 16:25:59;;;;;;;8.53;7.63;;;17.30;33.80;;;;;;12552902;23;20202;-84
2023/04/28 16:31:02;;;;;;;7.93;5.40;;;17.20;30.40;;;;;;12550202;23;20488;-84
2023/04/28 16:36:05;;;;;;;9.83;6.97;;;17.00;29.30;;;;;;12574960;23;20186;-83
2023/04/28 16:41:07;;;;;;;5.73;5.17;;;16.90;29.80;;;;;;12553258;23;20247;-83
2023/04/28 16:46:10;;;;;;;40.53;8.53;;;16.80;36.00;;;;;;12552607;23;20270;-84
2023/04/28 16:51:13;;;;;;;13.80;7.33;;;16.80;33.40;;;;;;12552944;23;20170;-84
2023/04/28 16:56:15;;;;;;;12.37;5.50;;;16.60;35.00;;;;;;12553690;23;20637;-84
2023/04/28 17:01:18;;;;;;;5.13;4.63;;;16.30;35.50;;;;;;12557237;23;20238;-84
2023/04/28 17:06:21;;;;;;;10.30;4.50;;;16.00;37.50;;;;;;12554980;23;20238;-84
2023/04/28 17:11:23;;;;;;;13.17;7.23;;;15.70;37.90;;;;;;12556724;23;20595;-84
2023/04/28 17:16:31;;;;;;;37.83;8.47;;;15.40;38.20;;;;;;12556715;23;20171;-84
2023/04/28 17:21:34;;;;;;;19.57;7.13;;;15.00;36.50;;;;;;12569388;23;20182;-84
2023/04/28 17:26:36;;;;;;;15.30;6.40;;;14.60;39.00;;;;;;12557140;23;20237;-84
2023/04/28 17:31:39;;;;;;;12.40;7.20;;;14.30;40.60;;;;;;12554892;23;20505;-84
2023/04/28 17:36:42;;;;;;;12.17;6.10;;;14.10;41.50;;;;;;12556169;23;20189;-84
2023/04/28 17:41:45;;;;;;;16.67;8.00;;;13.90;45.00;;;;;;12556998;23;20182;-84
2023/04/28 17:46:48;;;;;;;15.50;9.03;;;13.70;48.10;;;;;;12554108;23;20517;-84
2023/04/28 17:51:50;;;;;;;14.87;9.37;;;13.50;47.70;;;;;;12530857;23;20177;-84
2023/04/28 17:56:54;;;;;;;36.80;18.20;;;13.20;47.80;;;;;;12556139;23;20217;-84
2023/04/28 18:01:58;;;;;;;32.43;19.37;;;13.20;47.30;;;;;;12555930;23;20222;-84
2023/04/28 18:07:01;;;;;;;32.60;16.33;;;13.10;52.30;;;;;;12555113;23;20256;-84
2023/04/28 18:12:04;;;;;;;15.73;11.83;;;13.00;59.60;;;;;;12555507;23;20196;-84
2023/04/28 18:17:07;;;;;;;17.70;11.70;;;12.90;59.00;;;;;;12572486;23;20170;-84
2023/04/28 18:22:09;;;;;;;40.47;20.50;;;12.80;63.10;;;;;;12555286;23;20499;-84
2023/04/28 18:27:12;;;;;;;51.43;26.40;;;12.80;64.40;;;;;;12555669;23;20505;-84
2023/04/28 18:32:15;;;;;;;37.53;18.00;;;12.80;66.50;;;;;;12556033;23;20182;-84
2023/04/28 18:37:17;;;;;;;27.33;11.20;;;12.70;66.30;;;;;;12555103;23;20249;-84
2023/04/28 18:42:20;;;;;;;31.63;17.57;;;12.70;69.70;;;;;;12555231;23;20230;-84
2023/04/28 18:47:23;;;;;;;22.40;9.60;;;12.70;68.70;;;;;;12555475;23;20203;-83
2023/04/28 18:52:26;;;;;;;21.03;10.60;;;12.80;76.90;;;;;;12555290;23;20184;-83
2023/04/28 18:57:28;;;;;;;13.93;7.17;;;12.90;76.30;;;;;;12529525;23;20652;-83
2023/04/28 19:02:31;;;;;;;24.50;11.57;;;12.90;86.00;;;;;;12552536;23;20183;-83
2023/04/28 19:07:34;;;;;;;20.20;12.10;;;13.00;81.80;;;;;;12554947;23;20207;-83
2023/04/28 19:12:37;;;;;;;20.20;12.83;;;12.90;81.90;;;;;;12530099;23;20712;-84
2023/04/28 19:17:39;;;;;;;8.77;7.10;;;12.80;80.60;;;;;;12552050;23;20573;-84
2023/04/28 19:22:43;;;;;;;20.93;10.57;;;12.70;88.10;;;;;;12563078;23;20174;-84
2023/04/28 19:27:45;;;;;;;16.53;12.17;;;12.80;85.40;;;;;;12553998;23;20230;-84
2023/04/28 19:32:48;;;;;;;19.93;12.40;;;12.60;82.80;;;;;;12555298;23;20250;-84
2023/04/28 19:37:51;;;;;;;16.83;10.10;;;12.30;83.70;;;;;;12554372;23;20183;-84
2023/04/28 19:42:54;;;;;;;25.50;14.70;;;12.40;89.10;;;;;;12552087;23;20237;-84
2023/04/28 19:47:57;;;;;;;20.70;13.00;;;12.20;80.90;;;;;;12553958;23;20293;-84
2023/04/28 19:53:00;;;;;;;18.57;12.83;;;11.90;88.30;;;;;;12553331;23;20184;-84
2023/04/28 19:58:04;;;;;;;13.10;10.93;;;11.80;87.50;;;;;;12551028;23;20182;-84
2023/04/28 20:03:07;;;;;;;22.53;12.77;;;11.90;89.40;;;;;;12553568;23;20172;-83
2023/04/28 20:08:11;;;;;;;22.77;12.33;;;12.10;91.10;;;;;;12553021;23;20585;-83
2023/04/28 20:13:14;;;;;;;12.97;8.57;;;12.10;90.30;;;;;;12553603;23;20182;-84
2023/04/28 20:18:17;;;;;;;15.13;10.20;;;12.10;91.80;;;;;;12550590;23;20233;-84
2023/04/28 20:23:19;;;;;;;16.77;11.67;;;12.20;91.80;;;;;;12528921;23;20252;-85
2023/04/28 20:28:22;;;;;;;10.60;7.83;;;12.30;88.10;;;;;;12553373;23;20202;-82
2023/04/28 20:33:24;;;;;;;16.73;11.37;;;12.30;91.30;;;;;;12553197;23;20174;-82
2023/04/28 20:38:28;;;;;;;10.93;7.50;;;12.20;85.10;;;;;;12553593;23;20186;-82
2023/04/28 20:43:31;;;;;;;7.53;6.33;;;12.10;90.90;;;;;;12552691;23;20251;-82
2023/04/28 20:48:33;;;;;;;14.47;10.97;;;12.10;92.20;;;;;;12553413;23;20253;-82
2023/04/28 20:53:38;;;;;;;9.87;7.33;;;12.20;89.60;;;;;;12552997;23;20172;-82
2023/04/28 20:58:41;;;;;;;23.07;11.60;;;12.10;90.70;;;;;;12552800;23;20174;-82
2023/04/28 21:03:44;;;;;;;17.07;11.07;;;12.10;85.60;;;;;;12553942;23;20185;-82
2023/04/28 21:08:46;;;;;;;16.20;10.30;;;12.00;84.10;;;;;;12558088;23;20235;-82
2023/04/28 21:13:49;;;;;;;13.50;7.53;;;12.00;86.30;;;;;;12553378;23;20229;-82
2023/04/28 21:18:53;;;;;;;12.13;7.57;;;12.20;93.00;;;;;;12553601;23;20238;-82
2023/04/28 21:23:55;;;;;;;11.07;8.23;;;12.20;90.60;;;;;;12552973;23;20226;-82
2023/04/28 21:28:58;;;;;;;16.37;10.40;;;12.10;91.10;;;;;;12553145;23;20264;-82
2023/04/28 21:34:01;;;;;;;20.07;12.60;;;12.10;90.20;;;;;;12552915;23;20166;-82
2023/04/28 21:39:04;;;;;;;15.30;10.87;;;12.10;87.60;;;;;;12551484;23;20187;-83
2023/04/28 21:44:06;;;;;;;20.07;13.77;;;12.10;90.90;;;;;;12553454;23;20237;-82
2023/04/28 21:49:09;;;;;;;13.43;9.30;;;12.10;90.40;;;;;;12556667;23;20209;-83
2023/04/28 21:54:13;;;;;;;24.07;14.40;;;12.10;92.60;;;;;;12555829;23;20534;-83
2023/04/28 21:59:16;;;;;;;22.53;13.60;;;11.90;91.40;;;;;;12556158;23;20186;-83
2023/04/28 22:04:19;;;;;;;21.40;15.57;;;11.70;91.30;;;;;;12555924;23;20206;-83
2023/04/28 22:09:22;;;;;;;22.80;13.90;;;11.50;90.50;;;;;;12531103;23;20204;-82
2023/04/28 22:14:24;;;;;;;23.13;15.17;;;11.50;92.50;;;;;;12556198;23;20504;-83
2023/04/28 22:19:36;;;;;;;22.47;14.33;;;11.50;92.30;;;;;;12555419;23;20238;-83
2023/04/28 22:24:39;;;;;;;25.60;17.10;;;11.40;90.90;;;;;;12555090;23;20634;-83
2023/04/28 22:29:41;;;;;;;37.73;19.43;;;11.40;91.30;;;;;;12555866;23;20581;-82
2023/04/28 22:34:44;;;;;;;20.30;14.37;;;11.40;92.00;;;;;;12530475;23;20166;-83
2023/04/28 22:39:46;;;;;;;21.63;14.50;;;11.30;92.30;;;;;;12555144;23;20182;-83
2023/04/28 22:44:49;;;;;;;15.57;11.57;;;11.40;91.70;;;;;;12555176;23;20182;-83
2023/04/28 22:49:52;;;;;;;16.83;11.37;;;11.60;94.70;;;;;;12553886;23;20237;-82
2023/04/28 22:54:54;;;;;;;27.33;17.20;;;11.50;92.50;;;;;;12553931;23;20525;-83
2023/04/28 22:59:57;;;;;;;22.77;14.73;;;11.40;90.60;;;;;;12554722;23;20221;-83
2023/04/28 23:04:59;;;;;;;16.37;10.67;;;11.10;92.30;;;;;;12554331;23;20571;-83
2023/04/28 23:10:04;;;;;;;13.47;10.07;;;11.30;96.50;;;;;;12554253;23;20202;-82
2023/04/28 23:15:07;;;;;;;14.77;9.37;;;11.60;96.80;;;;;;12555051;23;20178;-83
2023/04/28 23:20:10;;;;;;;25.07;15.20;;;11.50;94.80;;;;;;12554740;23;20173;-82
2023/04/28 23:25:13;;;;;;;25.97;18.70;;;11.30;93.60;;;;;;12553185;23;20577;-83
2023/04/28 23:30:15;;;;;;;25.47;17.00;;;10.90;93.00;;;;;;12554796;23;20192;-83
2023/04/28 23:35:18;;;;;;;25.17;16.53;;;10.60;93.60;;;;;;12554260;23;20213;-83
2023/04/28 23:40:20;;;;;;;21.17;15.03;;;10.60;94.90;;;;;;12553913;23;20517;-82
2023/04/28 23:45:23;;;;;;;27.17;16.70;;;10.80;96.00;;;;;;12554598;23;20216;-83
2023/04/28 23:50:26;;;;;;;35.87;19.40;;;10.60;95.40;;;;;;12554074;23;20209;-82
2023/04/28 23:55:30;;;;;;;29.87;20.23;;;;;;;;;;12571116;23;20173;-83
